sensor_id;sensor_type;location;lat;lon;timestamp;temperature;humidity
58809;DHT22;44579;51.672;7.834;2023-02-28T00:00:22;1.00;74.20
58809;DHT22;44579;51.672;7.834;2023-02-28T00:02:49;1.00;74.30
58809;DHT22;44579;51.672;7.834;2023-02-28T00:05:17;0.90;74.20
58809;DHT22;44579;51.672;7.834;2023-02-28T00:07:44;0.90;74.30
58809;DHT22;44579;51.672;7.834;2023-02-28T00:10:12;0.90;74.30
58809;DHT22;44579;51.672;7.834;2023-02-28T00:12:39;0.90;74.30
58809;DHT22;44579;51.672;7.834;2023-02-28T00:15:09;0.80;74.30
58809;DHT22;44579;51.672;7.834;2023-02-28T00:17:37;0.80;74.50
58809;DHT22;44579;51.672;7.834;2023-02-28T00:20:04;0.80;74.40
58809;DHT22;44579;51.672;7.834;2023-02-28T00:22:32;0.80;74.50
58809;DHT22;44579;51.672;7.834;2023-02-28T00:24:59;0.80;74.50
58809;DHT22;44579;51.672;7.834;2023-02-28T00:27:26;0.80;74.40
58809;DHT22;44579;51.672;7.834;2023-02-28T00:29:53;0.70;74.30
58809;DHT22;44579;51.672;7.834;2023-02-28T00:32:20;0.70;74.30
58809;DHT22;44579;51.672;7.834;2023-02-28T00:34:47;0.70;74.30
58809;DHT22;44579;51.672;7.834;2023-02-28T00:37:14;0.60;74.20
58809;DHT22;44579;51.672;7.834;2023-02-28T00:39:41;0.60;74.30
58809;DHT22;44579;51.672;7.834;2023-02-28T00:42:08;0.60;74.20
58809;DHT22;44579;51.672;7.834;2023-02-28T00:44:34;0.60;74.40
58809;DHT22;44579;51.672;7.834;2023-02-28T00:47:02;0.60;74.40
58809;DHT22;44579;51.672;7.834;2023-02-28T00:49:28;0.60;74.50
58809;DHT22;44579;51.672;7.834;2023-02-28T00:51:55;0.50;74.50
58809;DHT22;44579;51.672;7.834;2023-02-28T00:54:22;0.50;74.50
58809;DHT22;44579;51.672;7.834;2023-02-28T00:56:50;0.50;74.60
58809;DHT22;44579;51.672;7.834;2023-02-28T00:59:17;0.50;74.70
58809;DHT22;44579;51.672;7.834;2023-02-28T01:01:44;0.50;74.80
58809;DHT22;44579;51.672;7.834;2023-02-28T01:04:16;0.50;74.70
58809;DHT22;44579;51.672;7.834;2023-02-28T01:06:43;0.40;74.60
58809;DHT22;44579;51.672;7.834;2023-02-28T01:09:10;0.40;74.60
58809;DHT22;44579;51.672;7.834;2023-02-28T01:11:36;0.40;74.60
58809;DHT22;44579;51.672;7.834;2023-02-28T01:14:03;0.30;74.50
58809;DHT22;44579;51.672;7.834;2023-02-28T01:16:31;0.30;74.50
58809;DHT22;44579;51.672;7.834;2023-02-28T01:18:57;0.20;74.50
58809;DHT22;44579;51.672;7.834;2023-02-28T01:21:24;0.10;74.40
58809;DHT22;44579;51.672;7.834;2023-02-28T01:23:51;0.10;74.50
58809;DHT22;44579;51.672;7.834;2023-02-28T01:26:20;0.00;74.50
58809;DHT22;44579;51.672;7.834;2023-02-28T01:28:48;0.00;74.50
58809;DHT22;44579;51.672;7.834;2023-02-28T01:31:16;-0.10;74.40
58809;DHT22;44579;51.672;7.834;2023-02-28T01:33:43;-0.10;74.50
58809;DHT22;44579;51.672;7.834;2023-02-28T01:36:12;-0.10;74.60
58809;DHT22;44579;51.672;7.834;2023-02-28T01:38:39;-0.20;74.50
58809;DHT22;44579;51.672;7.834;2023-02-28T01:41:06;-0.20;74.60
58809;DHT22;44579;51.672;7.834;2023-02-28T01:46:11;-0.40;74.60
58809;DHT22;44579;51.672;7.834;2023-02-28T01:48:40;-0.40;74.70
58809;DHT22;44579;51.672;7.834;2023-02-28T01:51:09;-0.40;74.70
58809;DHT22;44579;51.672;7.834;2023-02-28T01:53:39;-0.50;74.60
58809;DHT22;44579;51.672;7.834;2023-02-28T01:56:08;-0.50;74.60
58809;DHT22;44579;51.672;7.834;2023-02-28T01:58:36;-0.50;74.70
58809;DHT22;44579;51.672;7.834;2023-02-28T02:01:03;-0.50;74.70
58809;DHT22;44579;51.672;7.834;2023-02-28T02:03:32;-0.50;74.60
58809;DHT22;44579;51.672;7.834;2023-02-28T02:05:59;-0.50;74.60
58809;DHT22;44579;51.672;7.834;2023-02-28T02:08:26;-0.50;74.50
58809;DHT22;44579;51.672;7.834;2023-02-28T02:13:30;-0.50;74.40
58809;DHT22;44579;51.672;7.834;2023-02-28T02:16:03;-0.60;74.40
58809;DHT22;44579;51.672;7.834;2023-02-28T02:26:43;-0.60;74.40
58809;DHT22;44579;51.672;7.834;2023-02-28T02:31:52;-0.70;74.40
58809;DHT22;44579;51.672;7.834;2023-02-28T02:39:50;-0.80;74.30
58809;DHT22;44579;51.672;7.834;2023-02-28T02:42:23;-0.80;74.40
58809;DHT22;44579;51.672;7.834;2023-02-28T02:44:56;-0.80;74.40
58809;DHT22;44579;51.672;7.834;2023-02-28T02:47:26;-0.80;74.40
58809;DHT22;44579;51.672;7.834;2023-02-28T02:49:55;-0.80;74.40
58809;DHT22;44579;51.672;7.834;2023-02-28T02:52:28;-0.80;74.50
58809;DHT22;44579;51.672;7.834;2023-02-28T02:54:57;-0.80;74.50
58809;DHT22;44579;51.672;7.834;2023-02-28T02:57:33;-0.80;74.50
58809;DHT22;44579;51.672;7.834;2023-02-28T03:00:02;-0.80;74.40
58809;DHT22;44579;51.672;7.834;2023-02-28T03:02:30;-0.80;74.40
58809;DHT22;44579;51.672;7.834;2023-02-28T03:05:02;-0.90;74.30
58809;DHT22;44579;51.672;7.834;2023-02-28T03:07:29;-0.90;75.30
58809;DHT22;44579;51.672;7.834;2023-02-28T03:09:56;-0.90;74.40
58809;DHT22;44579;51.672;7.834;2023-02-28T03:12:27;-0.90;74.50
58809;DHT22;44579;51.672;7.834;2023-02-28T03:20:03;-1.00;74.40
58809;DHT22;44579;51.672;7.834;2023-02-28T03:25:17;-1.00;74.60
58809;DHT22;44579;51.672;7.834;2023-02-28T03:28:29;-1.00;74.60
58809;DHT22;44579;51.672;7.834;2023-02-28T03:30:44;-1.00;74.70
58809;DHT22;44579;51.672;7.834;2023-02-28T03:33:18;-1.00;74.70
58809;DHT22;44579;51.672;7.834;2023-02-28T03:35:47;-1.00;74.80
58809;DHT22;44579;51.672;7.834;2023-02-28T03:38:34;-1.00;75.60
58809;DHT22;44579;51.672;7.834;2023-02-28T04:17:50;-1.20;74.80
58809;DHT22;44579;51.672;7.834;2023-02-28T04:20:23;-1.20;74.80
58809;DHT22;44579;51.672;7.834;2023-02-28T04:22:50;-1.20;74.80
58809;DHT22;44579;51.672;7.834;2023-02-28T04:25:17;-1.20;74.80
58809;DHT22;44579;51.672;7.834;2023-02-28T04:27:44;-1.20;74.90
58809;DHT22;44579;51.672;7.834;2023-02-28T04:30:11;-1.20;74.90
58809;DHT22;44579;51.672;7.834;2023-02-28T04:32:38;-1.30;75.00
58809;DHT22;44579;51.672;7.834;2023-02-28T04:35:05;-1.20;75.00
58809;DHT22;44579;51.672;7.834;2023-02-28T04:37:32;-1.30;74.90
58809;DHT22;44579;51.672;7.834;2023-02-28T04:40:02;-1.30;75.00
58809;DHT22;44579;51.672;7.834;2023-02-28T04:42:29;-1.30;75.00
58809;DHT22;44579;51.672;7.834;2023-02-28T04:45:02;-1.30;75.00
58809;DHT22;44579;51.672;7.834;2023-02-28T04:47:29;-1.30;75.00
58809;DHT22;44579;51.672;7.834;2023-02-28T04:49:56;-1.30;75.00
58809;DHT22;44579;51.672;7.834;2023-02-28T04:52:23;-1.30;75.00
58809;DHT22;44579;51.672;7.834;2023-02-28T04:54:50;-1.30;74.90
58809;DHT22;44579;51.672;7.834;2023-02-28T04:57:16;-1.40;75.00
58809;DHT22;44579;51.672;7.834;2023-02-28T04:59:43;-1.40;74.90
58809;DHT22;44579;51.672;7.834;2023-02-28T05:02:10;-1.40;75.00
58809;DHT22;44579;51.672;7.834;2023-02-28T05:04:39;-1.50;75.00
58809;DHT22;44579;51.672;7.834;2023-02-28T05:07:06;-1.50;75.00
58809;DHT22;44579;51.672;7.834;2023-02-28T05:09:33;-1.60;75.10
58809;DHT22;44579;51.672;7.834;2023-02-28T05:12:01;-1.60;75.10
58809;DHT22;44579;51.672;7.834;2023-02-28T05:14:27;-1.60;75.10
58809;DHT22;44579;51.672;7.834;2023-02-28T05:16:54;-1.60;75.10
58809;DHT22;44579;51.672;7.834;2023-02-28T05:19:21;-1.60;75.20
58809;DHT22;44579;51.672;7.834;2023-02-28T05:21:52;-1.60;75.10
58809;DHT22;44579;51.672;7.834;2023-02-28T05:24:19;-1.70;75.00
58809;DHT22;44579;51.672;7.834;2023-02-28T05:26:49;-1.70;75.20
58809;DHT22;44579;51.672;7.834;2023-02-28T05:29:17;-1.80;75.10
58809;DHT22;44579;51.672;7.834;2023-02-28T05:31:44;-1.80;75.10
58809;DHT22;44579;51.672;7.834;2023-02-28T05:34:11;-1.80;75.10
58809;DHT22;44579;51.672;7.834;2023-02-28T05:36:39;-1.80;75.10
58809;DHT22;44579;51.672;7.834;2023-02-28T05:39:07;-1.90;75.00
58809;DHT22;44579;51.672;7.834;2023-02-28T05:41:39;-1.90;75.10
58809;DHT22;44579;51.672;7.834;2023-02-28T05:44:07;-1.90;75.10
58809;DHT22;44579;51.672;7.834;2023-02-28T05:46:34;-1.90;75.10
58809;DHT22;44579;51.672;7.834;2023-02-28T05:49:01;-1.90;75.10
58809;DHT22;44579;51.672;7.834;2023-02-28T05:51:28;-1.90;75.10
58809;DHT22;44579;51.672;7.834;2023-02-28T05:53:58;-2.00;75.10
58809;DHT22;44579;51.672;7.834;2023-02-28T05:56:25;-2.00;75.20
58809;DHT22;44579;51.672;7.834;2023-02-28T05:58:51;-2.10;75.20
58809;DHT22;44579;51.672;7.834;2023-02-28T06:01:20;-2.10;75.20
58809;DHT22;44579;51.672;7.834;2023-02-28T06:03:47;-2.10;75.30
58809;DHT22;44579;51.672;7.834;2023-02-28T06:06:13;-2.20;75.30
58809;DHT22;44579;51.672;7.834;2023-02-28T06:08:40;-2.20;75.30
58809;DHT22;44579;51.672;7.834;2023-02-28T06:11:09;-2.20;75.30
58809;DHT22;44579;51.672;7.834;2023-02-28T06:13:36;-2.20;75.30
58809;DHT22;44579;51.672;7.834;2023-02-28T06:16:03;-2.30;75.30
58809;DHT22;44579;51.672;7.834;2023-02-28T06:18:29;-2.30;75.40
58809;DHT22;44579;51.672;7.834;2023-02-28T06:20:56;-2.30;75.40
58809;DHT22;44579;51.672;7.834;2023-02-28T06:23:23;-2.40;75.40
58809;DHT22;44579;51.672;7.834;2023-02-28T06:25:50;-2.30;75.60
58809;DHT22;44579;51.672;7.834;2023-02-28T06:28:17;-2.40;75.50
58809;DHT22;44579;51.672;7.834;2023-02-28T06:30:44;-2.40;75.40
58809;DHT22;44579;51.672;7.834;2023-02-28T06:33:12;-2.30;75.40
58809;DHT22;44579;51.672;7.834;2023-02-28T06:35:38;-2.30;75.40
58809;DHT22;44579;51.672;7.834;2023-02-28T06:38:05;-2.30;75.50
58809;DHT22;44579;51.672;7.834;2023-02-28T06:40:32;-2.30;75.50
58809;DHT22;44579;51.672;7.834;2023-02-28T06:43:01;-2.30;75.40
58809;DHT22;44579;51.672;7.834;2023-02-28T06:45:28;-2.30;75.40
58809;DHT22;44579;51.672;7.834;2023-02-28T06:47:55;-2.30;75.40
58809;DHT22;44579;51.672;7.834;2023-02-28T06:50:22;-2.30;75.40
58809;DHT22;44579;51.672;7.834;2023-02-28T06:52:48;-2.30;75.40
58809;DHT22;44579;51.672;7.834;2023-02-28T06:55:20;-2.30;75.40
58809;DHT22;44579;51.672;7.834;2023-02-28T06:57:47;-2.30;75.40
58809;DHT22;44579;51.672;7.834;2023-02-28T07:00:14;-2.30;75.40
58809;DHT22;44579;51.672;7.834;2023-02-28T07:02:41;-2.30;75.40
58809;DHT22;44579;51.672;7.834;2023-02-28T07:05:08;-2.30;75.40
58809;DHT22;44579;51.672;7.834;2023-02-28T07:07:35;-2.20;75.50
58809;DHT22;44579;51.672;7.834;2023-02-28T07:10:04;-2.20;75.40
58809;DHT22;44579;51.672;7.834;2023-02-28T07:12:31;-2.20;75.30
58809;DHT22;44579;51.672;7.834;2023-02-28T07:14:58;-2.20;75.30
58809;DHT22;44579;51.672;7.834;2023-02-28T07:17:25;-2.10;75.30
58809;DHT22;44579;51.672;7.834;2023-02-28T07:19:52;-2.10;75.40
58809;DHT22;44579;51.672;7.834;2023-02-28T07:22:19;-2.00;75.30
58809;DHT22;44579;51.672;7.834;2023-02-28T07:24:46;-1.90;75.30
58809;DHT22;44579;51.672;7.834;2023-02-28T07:27:12;-1.90;75.20
58809;DHT22;44579;51.672;7.834;2023-02-28T07:29:52;-1.80;75.20
58809;DHT22;44579;51.672;7.834;2023-02-28T07:32:19;-1.70;75.10
58809;DHT22;44579;51.672;7.834;2023-02-28T07:34:46;-1.60;75.00
58809;DHT22;44579;51.672;7.834;2023-02-28T07:37:13;-1.50;74.90
58809;DHT22;44579;51.672;7.834;2023-02-28T07:39:40;-1.40;74.90
58809;DHT22;44579;51.672;7.834;2023-02-28T07:42:10;-1.30;74.90
58809;DHT22;44579;51.672;7.834;2023-02-28T07:44:38;-1.10;74.80
58809;DHT22;44579;51.672;7.834;2023-02-28T07:47:07;-1.00;74.70
58809;DHT22;44579;51.672;7.834;2023-02-28T07:49:38;-0.90;74.70
58809;DHT22;44579;51.672;7.834;2023-02-28T07:52:05;-0.90;75.10
58809;DHT22;44579;51.672;7.834;2023-02-28T07:54:33;-0.80;74.80
58809;DHT22;44579;51.672;7.834;2023-02-28T07:56:59;-0.70;74.80
58809;DHT22;44579;51.672;7.834;2023-02-28T07:59:26;-0.60;75.80
58809;DHT22;44579;51.672;7.834;2023-02-28T08:01:56;-0.60;75.00
58809;DHT22;44579;51.672;7.834;2023-02-28T08:04:23;-0.50;75.20
58809;DHT22;44579;51.672;7.834;2023-02-28T08:06:50;-0.40;75.20
58809;DHT22;44579;51.672;7.834;2023-02-28T08:09:19;-0.40;75.20
58809;DHT22;44579;51.672;7.834;2023-02-28T08:11:46;-0.30;75.30
58809;DHT22;44579;51.672;7.834;2023-02-28T08:14:13;-0.20;75.40
58809;DHT22;44579;51.672;7.834;2023-02-28T08:16:40;-0.20;75.50
58809;DHT22;44579;51.672;7.834;2023-02-28T08:19:07;-0.10;75.50
58809;DHT22;44579;51.672;7.834;2023-02-28T08:21:33;-0.10;75.60
58809;DHT22;44579;51.672;7.834;2023-02-28T08:24:00;0.00;75.70
58809;DHT22;44579;51.672;7.834;2023-02-28T08:26:27;0.00;75.70
58809;DHT22;44579;51.672;7.834;2023-02-28T08:28:54;0.10;75.90
58809;DHT22;44579;51.672;7.834;2023-02-28T08:31:23;0.20;76.10
58809;DHT22;44579;51.672;7.834;2023-02-28T08:33:50;0.30;76.20
58809;DHT22;44579;51.672;7.834;2023-02-28T08:36:18;0.30;76.20
58809;DHT22;44579;51.672;7.834;2023-02-28T08:38:45;0.40;76.30
58809;DHT22;44579;51.672;7.834;2023-02-28T08:41:12;0.50;76.40
58809;DHT22;44579;51.672;7.834;2023-02-28T08:43:39;0.60;76.40
58809;DHT22;44579;51.672;7.834;2023-02-28T08:46:06;0.70;76.30
58809;DHT22;44579;51.672;7.834;2023-02-28T08:48:34;0.70;76.20
58809;DHT22;44579;51.672;7.834;2023-02-28T08:51:05;0.80;76.30
58809;DHT22;44579;51.672;7.834;2023-02-28T08:53:37;0.90;76.40
58809;DHT22;44579;51.672;7.834;2023-02-28T08:56:07;1.00;77.30
58809;DHT22;44579;51.672;7.834;2023-02-28T08:58:34;1.00;76.40
58809;DHT22;44579;51.672;7.834;2023-02-28T09:01:06;1.10;76.60
58809;DHT22;44579;51.672;7.834;2023-02-28T09:03:33;1.20;76.80
58809;DHT22;44579;51.672;7.834;2023-02-28T09:06:01;1.30;76.80
58809;DHT22;44579;51.672;7.834;2023-02-28T09:08:28;1.30;76.60
58809;DHT22;44579;51.672;7.834;2023-02-28T09:10:57;1.40;76.30
58809;DHT22;44579;51.672;7.834;2023-02-28T09:13:25;1.50;76.30
58809;DHT22;44579;51.672;7.834;2023-02-28T09:15:52;1.70;76.10
58809;DHT22;44579;51.672;7.834;2023-02-28T09:18:19;1.80;76.80
58809;DHT22;44579;51.672;7.834;2023-02-28T09:20:46;1.90;75.90
58809;DHT22;44579;51.672;7.834;2023-02-28T09:23:13;1.90;76.00
58809;DHT22;44579;51.672;7.834;2023-02-28T09:25:47;2.00;76.50
58809;DHT22;44579;51.672;7.834;2023-02-28T09:28:14;2.10;76.50
58809;DHT22;44579;51.672;7.834;2023-02-28T09:30:44;2.20;76.70
58809;DHT22;44579;51.672;7.834;2023-02-28T09:33:11;2.20;76.80
58809;DHT22;44579;51.672;7.834;2023-02-28T09:35:37;2.30;76.80
58809;DHT22;44579;51.672;7.834;2023-02-28T09:38:04;2.40;76.90
58809;DHT22;44579;51.672;7.834;2023-02-28T09:40:31;2.40;76.40
58809;DHT22;44579;51.672;7.834;2023-02-28T09:42:59;2.50;76.80
58809;DHT22;44579;51.672;7.834;2023-02-28T09:45:36;2.50;77.00
58809;DHT22;44579;51.672;7.834;2023-02-28T09:48:07;2.60;76.70
58809;DHT22;44579;51.672;7.834;2023-02-28T09:50:40;2.60;76.50
58809;DHT22;44579;51.672;7.834;2023-02-28T09:53:28;2.50;76.80
58809;DHT22;44579;51.672;7.834;2023-02-28T09:59:05;2.40;77.80
58809;DHT22;44579;51.672;7.834;2023-02-28T10:07:13;2.60;78.50
58809;DHT22;44579;51.672;7.834;2023-02-28T10:09:51;2.70;79.20
58809;DHT22;44579;51.672;7.834;2023-02-28T10:12:18;2.80;79.50
58809;DHT22;44579;51.672;7.834;2023-02-28T10:14:46;2.80;79.00
58809;DHT22;44579;51.672;7.834;2023-02-28T10:17:15;2.90;79.10
58809;DHT22;44579;51.672;7.834;2023-02-28T10:19:55;3.00;78.40
58809;DHT22;44579;51.672;7.834;2023-02-28T10:22:34;3.00;78.30
58809;DHT22;44579;51.672;7.834;2023-02-28T10:25:17;3.10;78.80
58809;DHT22;44579;51.672;7.834;2023-02-28T10:27:45;3.10;78.90
58809;DHT22;44579;51.672;7.834;2023-02-28T10:30:12;3.10;78.20
58809;DHT22;44579;51.672;7.834;2023-02-28T10:32:40;3.20;78.20
58809;DHT22;44579;51.672;7.834;2023-02-28T10:35:14;3.30;78.60
58809;DHT22;44579;51.672;7.834;2023-02-28T10:37:42;3.40;78.40
58809;DHT22;44579;51.672;7.834;2023-02-28T10:43:00;3.50;78.50
58809;DHT22;44579;51.672;7.834;2023-02-28T10:45:28;3.60;78.30
58809;DHT22;44579;51.672;7.834;2023-02-28T10:47:57;3.80;79.00
58809;DHT22;44579;51.672;7.834;2023-02-28T10:50:32;3.90;79.00
58809;DHT22;44579;51.672;7.834;2023-02-28T10:55:42;4.00;78.10
58809;DHT22;44579;51.672;7.834;2023-02-28T11:01:02;4.20;78.10
58809;DHT22;44579;51.672;7.834;2023-02-28T11:03:30;4.20;77.10
58809;DHT22;44579;51.672;7.834;2023-02-28T11:05:58;4.20;76.20
58809;DHT22;44579;51.672;7.834;2023-02-28T11:08:25;4.20;75.60
58809;DHT22;44579;51.672;7.834;2023-02-28T11:10:56;4.20;75.50
58809;DHT22;44579;51.672;7.834;2023-02-28T11:13:33;4.20;75.30
58809;DHT22;44579;51.672;7.834;2023-02-28T11:16:02;4.30;75.20
58809;DHT22;44579;51.672;7.834;2023-02-28T11:18:33;4.30;74.80
58809;DHT22;44579;51.672;7.834;2023-02-28T11:21:02;4.20;74.60
58809;DHT22;44579;51.672;7.834;2023-02-28T11:23:30;4.20;74.50
58809;DHT22;44579;51.672;7.834;2023-02-28T11:25:59;4.10;74.50
58809;DHT22;44579;51.672;7.834;2023-02-28T11:28:31;4.10;73.90
58809;DHT22;44579;51.672;7.834;2023-02-28T11:35:55;4.30;73.20
58809;DHT22;44579;51.672;7.834;2023-02-28T11:38:26;4.40;73.40
58809;DHT22;44579;51.672;7.834;2023-02-28T11:48:27;4.50;70.10
58809;DHT22;44579;51.672;7.834;2023-02-28T11:51:15;4.40;69.80
58809;DHT22;44579;51.672;7.834;2023-02-28T11:53:50;4.30;70.00
58809;DHT22;44579;51.672;7.834;2023-02-28T11:56:31;4.20;70.50
58809;DHT22;44579;51.672;7.834;2023-02-28T12:09:14;3.90;70.60
58809;DHT22;44579;51.672;7.834;2023-02-28T12:11:51;4.00;71.00
58809;DHT22;44579;51.672;7.834;2023-02-28T12:27:20;4.50;70.00
58809;DHT22;44579;51.672;7.834;2023-02-28T12:30:03;4.60;69.30
58809;DHT22;44579;51.672;7.834;2023-02-28T12:32:36;4.50;68.60
58809;DHT22;44579;51.672;7.834;2023-02-28T12:35:10;4.50;69.20
58809;DHT22;44579;51.672;7.834;2023-02-28T12:37:41;4.50;69.60
58809;DHT22;44579;51.672;7.834;2023-02-28T12:40:12;4.60;70.00
58809;DHT22;44579;51.672;7.834;2023-02-28T12:42:42;4.60;70.60
58809;DHT22;44579;51.672;7.834;2023-02-28T12:45:17;4.60;70.40
58809;DHT22;44579;51.672;7.834;2023-02-28T12:47:52;4.60;70.40
58809;DHT22;44579;51.672;7.834;2023-02-28T12:50:25;4.70;70.80
58809;DHT22;44579;51.672;7.834;2023-02-28T12:58:10;4.70;71.60
58809;DHT22;44579;51.672;7.834;2023-02-28T13:01:22;4.70;71.80
58809;DHT22;44579;51.672;7.834;2023-02-28T13:09:12;4.70;70.90
58809;DHT22;44579;51.672;7.834;2023-02-28T13:11:43;4.70;70.90
58809;DHT22;44579;51.672;7.834;2023-02-28T13:14:18;4.70;71.30
58809;DHT22;44579;51.672;7.834;2023-02-28T13:19:24;4.80;71.70
58809;DHT22;44579;51.672;7.834;2023-02-28T13:21:52;4.90;71.70
58809;DHT22;44579;51.672;7.834;2023-02-28T13:29:37;5.00;70.60
58809;DHT22;44579;51.672;7.834;2023-02-28T13:34:38;5.20;71.00
58809;DHT22;44579;51.672;7.834;2023-02-28T13:42:57;5.50;68.90
58809;DHT22;44579;51.672;7.834;2023-02-28T13:45:27;5.60;66.80
58809;DHT22;44579;51.672;7.834;2023-02-28T13:48:02;5.50;64.20
58809;DHT22;44579;51.672;7.834;2023-02-28T14:06:29;5.10;65.90
58809;DHT22;44579;51.672;7.834;2023-02-28T14:09:06;5.10;66.50
58809;DHT22;44579;51.672;7.834;2023-02-28T14:11:45;5.20;66.80
58809;DHT22;44579;51.672;7.834;2023-02-28T14:17:00;5.20;66.80
58809;DHT22;44579;51.672;7.834;2023-02-28T14:19:35;5.10;66.10
58809;DHT22;44579;51.672;7.834;2023-02-28T14:28:32;4.90;66.30
58809;DHT22;44579;51.672;7.834;2023-02-28T14:31:10;4.90;65.20
58809;DHT22;44579;51.672;7.834;2023-02-28T14:33:57;4.90;64.30
58809;DHT22;44579;51.672;7.834;2023-02-28T14:36:31;4.90;64.80
58809;DHT22;44579;51.672;7.834;2023-02-28T14:39:04;4.90;64.50
58809;DHT22;44579;51.672;7.834;2023-02-28T14:41:36;4.90;64.30
58809;DHT22;44579;51.672;7.834;2023-02-28T14:49:42;5.00;63.60
58809;DHT22;44579;51.672;7.834;2023-02-28T14:54:43;4.90;63.70
58809;DHT22;44579;51.672;7.834;2023-02-28T14:57:21;4.90;63.90
58809;DHT22;44579;51.672;7.834;2023-02-28T14:59:56;4.80;64.10
58809;DHT22;44579;51.672;7.834;2023-02-28T15:02:24;4.80;64.40
58809;DHT22;44579;51.672;7.834;2023-02-28T15:04:52;4.80;64.70
58809;DHT22;44579;51.672;7.834;2023-02-28T15:07:20;4.80;64.80
58809;DHT22;44579;51.672;7.834;2023-02-28T15:10:13;4.70;65.10
58809;DHT22;44579;51.672;7.834;2023-02-28T15:12:43;4.80;65.30
58809;DHT22;44579;51.672;7.834;2023-02-28T15:15:16;4.80;65.60
58809;DHT22;44579;51.672;7.834;2023-02-28T15:17:45;4.80;65.80
58809;DHT22;44579;51.672;7.834;2023-02-28T15:20:13;4.80;65.70
58809;DHT22;44579;51.672;7.834;2023-02-28T15:22:44;4.80;65.90
58809;DHT22;44579;51.672;7.834;2023-02-28T15:25:13;4.80;66.00
58809;DHT22;44579;51.672;7.834;2023-02-28T15:27:44;4.90;65.70
58809;DHT22;44579;51.672;7.834;2023-02-28T15:30:18;4.80;65.40
58809;DHT22;44579;51.672;7.834;2023-02-28T15:35:36;4.90;65.20
58809;DHT22;44579;51.672;7.834;2023-02-28T15:38:13;4.90;65.00
58809;DHT22;44579;51.672;7.834;2023-02-28T15:40:45;4.90;64.40
58809;DHT22;44579;51.672;7.834;2023-02-28T15:43:30;4.90;63.60
58809;DHT22;44579;51.672;7.834;2023-02-28T15:46:01;4.90;63.40
58809;DHT22;44579;51.672;7.834;2023-02-28T15:48:33;4.90;63.70
58809;DHT22;44579;51.672;7.834;2023-02-28T15:51:07;4.80;64.00
58809;DHT22;44579;51.672;7.834;2023-02-28T15:56:26;4.80;64.40
58809;DHT22;44579;51.672;7.834;2023-02-28T15:59:02;4.80;64.50
58809;DHT22;44579;51.672;7.834;2023-02-28T16:01:34;4.80;64.70
58809;DHT22;44579;51.672;7.834;2023-02-28T16:04:11;4.80;64.80
58809;DHT22;44579;51.672;7.834;2023-02-28T16:07:25;4.70;64.90
58809;DHT22;44579;51.672;7.834;2023-02-28T16:09:28;4.70;64.90
58809;DHT22;44579;51.672;7.834;2023-02-28T16:12:01;4.70;65.10
58809;DHT22;44579;51.672;7.834;2023-02-28T16:14:32;4.70;65.10
58809;DHT22;44579;51.672;7.834;2023-02-28T16:17:06;4.60;65.20
58809;DHT22;44579;51.672;7.834;2023-02-28T16:19:36;4.70;65.40
58809;DHT22;44579;51.672;7.834;2023-02-28T16:22:08;4.70;65.30
58809;DHT22;44579;51.672;7.834;2023-02-28T16:24:36;4.60;65.30
58809;DHT22;44579;51.672;7.834;2023-02-28T16:27:06;4.60;65.10
58809;DHT22;44579;51.672;7.834;2023-02-28T16:29:34;4.60;65.20
58809;DHT22;44579;51.672;7.834;2023-02-28T16:32:06;4.50;65.40
58809;DHT22;44579;51.672;7.834;2023-02-28T16:34:34;4.50;65.60
58809;DHT22;44579;51.672;7.834;2023-02-28T16:37:01;4.50;65.70
58809;DHT22;44579;51.672;7.834;2023-02-28T16:39:30;4.40;65.80
58809;DHT22;44579;51.672;7.834;2023-02-28T16:41:57;4.40;65.90
58809;DHT22;44579;51.672;7.834;2023-02-28T16:44:28;4.40;65.90
58809;DHT22;44579;51.672;7.834;2023-02-28T16:46:59;4.30;65.90
58809;DHT22;44579;51.672;7.834;2023-02-28T16:52:58;4.30;66.00
58809;DHT22;44579;51.672;7.834;2023-02-28T16:55:26;4.20;66.10
58809;DHT22;44579;51.672;7.834;2023-02-28T16:57:56;4.20;66.20
58809;DHT22;44579;51.672;7.834;2023-02-28T17:00:26;4.10;66.10
58809;DHT22;44579;51.672;7.834;2023-02-28T17:02:58;4.10;67.10
58809;DHT22;44579;51.672;7.834;2023-02-28T17:05:33;4.00;66.30
58809;DHT22;44579;51.672;7.834;2023-02-28T17:08:04;4.00;66.40
58809;DHT22;44579;51.672;7.834;2023-02-28T17:10:32;3.90;66.30
58809;DHT22;44579;51.672;7.834;2023-02-28T17:12:59;3.90;66.50
58809;DHT22;44579;51.672;7.834;2023-02-28T17:15:40;3.80;66.40
58809;DHT22;44579;51.672;7.834;2023-02-28T17:18:11;3.80;66.60
58809;DHT22;44579;51.672;7.834;2023-02-28T17:20:40;3.70;66.60
58809;DHT22;44579;51.672;7.834;2023-02-28T17:23:09;3.70;66.70
58809;DHT22;44579;51.672;7.834;2023-02-28T17:25:39;3.60;66.70
58809;DHT22;44579;51.672;7.834;2023-02-28T17:28:08;3.60;66.80
58809;DHT22;44579;51.672;7.834;2023-02-28T17:30:36;3.60;66.90
58809;DHT22;44579;51.672;7.834;2023-02-28T17:33:03;3.50;66.90
58809;DHT22;44579;51.672;7.834;2023-02-28T17:35:31;3.50;67.00
58809;DHT22;44579;51.672;7.834;2023-02-28T17:37:58;3.40;67.10
58809;DHT22;44579;51.672;7.834;2023-02-28T17:40:25;3.30;67.20
58809;DHT22;44579;51.672;7.834;2023-02-28T17:42:52;3.30;67.30
58809;DHT22;44579;51.672;7.834;2023-02-28T17:45:22;3.20;67.50
58809;DHT22;44579;51.672;7.834;2023-02-28T17:47:49;3.20;67.50
58809;DHT22;44579;51.672;7.834;2023-02-28T17:50:18;3.10;67.50
58809;DHT22;44579;51.672;7.834;2023-02-28T17:52:46;3.10;67.60
58809;DHT22;44579;51.672;7.834;2023-02-28T17:55:13;3.10;67.70
58809;DHT22;44579;51.672;7.834;2023-02-28T17:57:41;3.00;67.70
58809;DHT22;44579;51.672;7.834;2023-02-28T18:00:13;3.00;67.80
58809;DHT22;44579;51.672;7.834;2023-02-28T18:02:43;3.00;67.80
58809;DHT22;44579;51.672;7.834;2023-02-28T18:05:11;2.90;67.90
58809;DHT22;44579;51.672;7.834;2023-02-28T18:07:39;2.90;68.00
58809;DHT22;44579;51.672;7.834;2023-02-28T18:10:11;2.80;68.00
58809;DHT22;44579;51.672;7.834;2023-02-28T18:12:40;2.80;68.00
58809;DHT22;44579;51.672;7.834;2023-02-28T18:15:07;2.80;68.20
58809;DHT22;44579;51.672;7.834;2023-02-28T18:17:35;2.80;68.30
58809;DHT22;44579;51.672;7.834;2023-02-28T18:20:03;2.70;68.30
58809;DHT22;44579;51.672;7.834;2023-02-28T18:22:31;2.70;68.30
58809;DHT22;44579;51.672;7.834;2023-02-28T18:24:59;2.70;68.40
58809;DHT22;44579;51.672;7.834;2023-02-28T18:27:26;2.70;68.40
58809;DHT22;44579;51.672;7.834;2023-02-28T18:29:53;2.70;68.60
58809;DHT22;44579;51.672;7.834;2023-02-28T18:32:21;2.60;68.60
58809;DHT22;44579;51.672;7.834;2023-02-28T18:34:48;2.60;68.70
58809;DHT22;44579;51.672;7.834;2023-02-28T18:37:16;2.60;68.80
58809;DHT22;44579;51.672;7.834;2023-02-28T18:39:44;2.60;68.90
58809;DHT22;44579;51.672;7.834;2023-02-28T18:42:14;2.60;68.90
58809;DHT22;44579;51.672;7.834;2023-02-28T18:44:42;2.60;69.00
58809;DHT22;44579;51.672;7.834;2023-02-28T18:47:09;2.50;68.90
58809;DHT22;44579;51.672;7.834;2023-02-28T18:49:36;2.50;69.00
58809;DHT22;44579;51.672;7.834;2023-02-28T18:52:04;2.50;69.00
58809;DHT22;44579;51.672;7.834;2023-02-28T18:54:31;2.50;69.10
58809;DHT22;44579;51.672;7.834;2023-02-28T18:56:59;2.40;69.10
58809;DHT22;44579;51.672;7.834;2023-02-28T18:59:30;2.40;69.10
58809;DHT22;44579;51.672;7.834;2023-02-28T19:02:25;2.40;69.20